createdAt,value
2022-10-11T00:00:35.612Z,3.80
2022-10-11T00:03:10.990Z,3.22
2022-10-11T00:05:44.487Z,2.92
2022-10-11T00:08:17.136Z,3.78
2022-10-11T00:11:06.017Z,3.28
2022-10-11T00:13:38.558Z,3.15
2022-10-11T00:16:15.715Z,3.75
2022-10-11T00:18:50.752Z,3.38
2022-10-11T00:21:23.460Z,3.20
2022-10-11T00:23:55.881Z,3.38
2022-10-11T00:26:28.493Z,3.33
2022-10-11T00:29:01.013Z,3.35
2022-10-11T00:31:35.853Z,3.03
2022-10-11T00:34:10.549Z,3.15
2022-10-11T00:36:43.212Z,3.00
2022-10-11T00:39:15.635Z,2.75
2022-10-11T00:41:51.556Z,2.85
2022-10-11T00:44:26.721Z,2.80
2022-10-11T00:47:06.597Z,2.80
2022-10-11T00:49:56.080Z,3.08
2022-10-11T00:52:40.828Z,2.55
2022-10-11T00:55:17.071Z,2.50
2022-10-11T00:57:55.198Z,2.92
2022-10-11T01:00:27.780Z,2.97
2022-10-11T01:03:01.760Z,2.50
2022-10-11T01:05:36.652Z,2.50
2022-10-11T01:08:09.357Z,2.58
2022-10-11T01:10:41.970Z,2.80
2022-10-11T01:13:39.684Z,2.70
2022-10-11T01:16:15.110Z,2.40
2022-10-11T01:18:57.808Z,3.08
2022-10-11T01:21:50.725Z,2.33
2022-10-11T01:25:29.510Z,2.65
2022-10-11T01:28:38.411Z,2.20
2022-10-11T01:31:42.830Z,2.47
2022-10-11T01:34:49.294Z,2.50
2022-10-11T01:37:47.670Z,2.53
2022-10-11T01:41:06.024Z,2.83
2022-10-11T01:43:47.117Z,2.70
2022-10-11T01:46:37.165Z,2.60
2022-10-11T01:49:41.227Z,2.65
2022-10-11T01:52:23.952Z,2.65
2022-10-11T01:55:09.576Z,2.75
2022-10-11T01:58:31.725Z,2.53
2022-10-11T02:01:37.221Z,2.50
2022-10-11T02:04:33.199Z,2.40
2022-10-11T02:07:22.188Z,2.70
2022-10-11T02:10:07.390Z,2.42
2022-10-11T02:12:54.537Z,2.15
2022-10-11T02:15:38.918Z,2.42
2022-10-11T02:18:28.655Z,4.60
2022-10-11T02:21:05.171Z,2.22
2022-10-11T02:23:49.856Z,3.00
2022-10-11T02:26:25.210Z,2.45
2022-10-11T02:29:04.793Z,3.38
2022-10-11T02:31:38.617Z,2.60
2022-10-11T02:34:28.471Z,2.90
2022-10-11T02:37:24.998Z,2.90
2022-10-11T02:40:24.763Z,2.60
2022-10-11T02:43:09.413Z,2.40
2022-10-11T02:45:45.135Z,3.10
2022-10-11T02:48:18.707Z,3.35
2022-10-11T02:50:59.592Z,3.35
2022-10-11T02:53:32.623Z,3.75
2022-10-11T02:58:38.228Z,3.15
2022-10-11T03:01:38.215Z,3.63
2022-10-11T03:04:10.842Z,3.08
2022-10-11T03:06:43.389Z,3.50
2022-10-11T03:09:15.980Z,3.42
2022-10-11T03:11:48.769Z,3.25
2022-10-11T03:14:21.337Z,4.22
2022-10-11T03:16:53.845Z,3.03
2022-10-11T03:19:26.561Z,3.67
2022-10-11T03:21:59.114Z,3.20
2022-10-11T03:24:31.588Z,3.67
2022-10-11T03:27:04.186Z,3.53
2022-10-11T03:29:36.752Z,3.90
2022-10-11T03:32:09.244Z,3.78
2022-10-11T03:34:41.748Z,3.42
2022-10-11T03:37:14.403Z,3.53
2022-10-11T03:39:47.044Z,3.50
2022-10-11T03:42:19.602Z,3.97
2022-10-11T03:44:52.190Z,4.13
2022-10-11T03:47:25.282Z,4.05
2022-10-11T03:49:57.828Z,4.20
2022-10-11T03:52:30.321Z,4.55
2022-10-11T03:55:02.937Z,4.50
2022-10-11T03:57:35.514Z,4.38
2022-10-11T04:00:08.835Z,4.15
2022-10-11T04:02:41.483Z,4.32
2022-10-11T04:05:14.152Z,4.70
2022-10-11T04:07:46.649Z,4.30
2022-10-11T04:10:19.226Z,4.68
2022-10-11T04:12:51.788Z,3.97
2022-10-11T04:15:24.640Z,4.05
2022-10-11T04:17:57.178Z,4.43
2022-10-11T04:20:29.750Z,3.67
2022-10-11T04:23:02.395Z,4.25
2022-10-11T04:25:35.050Z,4.25
2022-10-11T04:28:09.258Z,3.72
2022-10-11T04:30:41.814Z,3.35
2022-10-11T04:33:14.394Z,3.55
2022-10-11T04:35:46.981Z,4.40
2022-10-11T04:38:19.448Z,3.70
2022-10-11T04:40:51.927Z,3.45
2022-10-11T04:43:24.445Z,4.00
2022-10-11T04:45:56.909Z,3.47
2022-10-11T04:48:29.644Z,3.90
2022-10-11T04:51:02.162Z,3.63
2022-10-11T04:53:34.598Z,3.60
2022-10-11T04:56:11.543Z,4.00
2022-10-11T04:58:44.002Z,3.75
2022-10-11T05:01:16.488Z,3.55
2022-10-11T05:03:49.936Z,3.40
2022-10-11T05:06:22.537Z,3.47
2022-10-11T05:08:55.154Z,3.78
2022-10-11T05:11:27.851Z,3.58
2022-10-11T05:14:00.572Z,3.42
2022-10-11T05:16:33.108Z,3.65
2022-10-11T05:19:05.767Z,4.35
2022-10-11T05:21:38.438Z,4.20
2022-10-11T05:24:10.975Z,3.65
2022-10-11T05:26:43.469Z,3.97
2022-10-11T05:29:16.422Z,4.63
2022-10-11T05:34:21.308Z,3.78
2022-10-11T05:36:53.973Z,4.13
2022-10-11T05:39:26.534Z,3.80
2022-10-11T05:41:59.163Z,3.67
2022-10-11T05:44:31.611Z,4.03
2022-10-11T05:47:04.154Z,5.20
2022-10-11T05:49:36.761Z,3.88
2022-10-11T05:52:10.738Z,4.07
2022-10-11T05:54:43.290Z,4.28
2022-10-11T05:57:15.947Z,4.13
2022-10-11T05:59:48.514Z,3.58
2022-10-11T06:02:21.151Z,4.15
2022-10-11T06:04:53.655Z,4.03
2022-10-11T06:07:26.380Z,3.85
2022-10-11T06:09:58.987Z,4.05
2022-10-11T06:12:31.892Z,4.53
2022-10-11T06:17:38.050Z,4.60
2022-10-11T06:20:10.865Z,4.47
2022-10-11T06:22:43.375Z,3.97
2022-10-11T06:25:15.994Z,3.97
2022-10-11T06:27:48.584Z,4.40
2022-10-11T06:30:21.063Z,5.05
2022-10-11T06:32:53.560Z,4.75
2022-10-11T06:35:26.148Z,4.63
2022-10-11T06:37:58.648Z,5.43
2022-10-11T06:40:31.130Z,4.90
2022-10-11T06:43:04.017Z,5.03
2022-10-11T06:48:09.093Z,5.07
2022-10-11T06:50:59.168Z,5.13
2022-10-11T06:53:32.351Z,4.97
2022-10-11T06:56:07.870Z,4.40
2022-10-11T06:58:41.429Z,5.45
2022-10-11T07:01:20.732Z,4.82
2022-10-11T07:03:54.978Z,4.95
2022-10-11T07:06:30.138Z,4.30
2022-10-11T07:09:02.663Z,3.67
2022-10-11T07:11:35.789Z,4.20
2022-10-11T07:14:08.460Z,4.10
2022-10-11T07:16:41.017Z,3.65
2022-10-11T07:19:13.516Z,4.05
2022-10-11T07:21:46.080Z,5.00
2022-10-11T07:24:19.255Z,4.20
2022-10-11T07:26:52.022Z,4.22
2022-10-11T07:29:24.668Z,3.45
2022-10-11T07:31:57.195Z,3.15
2022-10-11T07:34:29.694Z,3.15
2022-10-11T07:37:03.222Z,3.45
2022-10-11T07:39:35.861Z,4.88
2022-10-11T07:42:10.141Z,4.88
2022-10-11T07:44:42.623Z,4.97
2022-10-11T07:47:15.148Z,6.18
2022-10-11T07:49:47.638Z,4.47
2022-10-11T07:52:20.128Z,3.78
2022-10-11T07:54:52.601Z,3.70
2022-10-11T07:57:25.095Z,3.53
2022-10-11T07:59:57.681Z,2.60
2022-10-11T08:02:30.962Z,2.85
2022-10-11T08:05:03.807Z,2.53
2022-10-11T08:10:09.830Z,2.13
2022-10-11T08:12:42.288Z,3.42
2022-10-11T08:15:14.973Z,2.78
2022-10-11T08:17:48.032Z,2.40
2022-10-11T08:20:21.423Z,2.83
2022-10-11T08:22:54.301Z,2.38
2022-10-11T08:25:26.810Z,2.58
2022-10-11T08:27:59.230Z,2.53
2022-10-11T08:30:31.702Z,3.00
2022-10-11T08:33:08.462Z,3.40
2022-10-11T08:35:41.215Z,3.83
2022-10-11T08:38:13.927Z,3.65
2022-10-11T08:44:07.561Z,4.47
2022-10-11T08:46:43.373Z,5.00
2022-10-11T08:49:22.480Z,4.72
2022-10-11T08:52:04.122Z,4.03
2022-10-11T08:54:44.765Z,3.75
2022-10-11T08:57:21.288Z,3.75
2022-10-11T08:59:59.848Z,3.97
2022-10-11T09:03:03.011Z,3.28
2022-10-11T09:05:35.080Z,3.30
2022-10-11T09:08:16.195Z,3.35
2022-10-11T09:11:09.371Z,3.33
2022-10-11T09:16:30.782Z,3.05
2022-10-11T09:19:42.395Z,2.70
2022-10-11T09:22:31.391Z,3.25
2022-10-11T09:25:22.819Z,3.15
2022-10-11T09:28:18.279Z,3.30
2022-10-11T09:30:55.684Z,3.40
2022-10-11T09:33:35.637Z,3.75
2022-10-11T09:36:28.871Z,3.15
2022-10-11T09:41:51.830Z,3.22
2022-10-11T09:44:27.541Z,3.20
2022-10-11T09:47:00.415Z,3.40
2022-10-11T09:49:56.541Z,2.70
2022-10-11T09:52:29.389Z,2.50
2022-10-11T09:55:03.194Z,2.83
2022-10-11T09:57:39.791Z,3.10
2022-10-11T10:00:24.664Z,2.53
2022-10-11T10:02:59.745Z,2.33
2022-10-11T10:05:37.704Z,2.35
2022-10-11T10:08:10.161Z,2.55
2022-10-11T10:11:00.582Z,2.40
2022-10-11T10:13:51.994Z,2.30
2022-10-11T10:16:28.340Z,2.72
2022-10-11T10:19:07.366Z,2.30
2022-10-11T10:21:47.878Z,2.47
2022-10-11T10:24:37.941Z,2.40
2022-10-11T10:27:30.678Z,2.20
2022-10-11T10:30:09.257Z,1.98
2022-10-11T10:32:48.753Z,2.40
2022-10-11T10:35:45.847Z,3.25
2022-10-11T10:38:52.556Z,2.10
2022-10-11T10:41:26.070Z,2.13
2022-10-11T10:44:00.851Z,2.00
2022-10-11T10:46:48.357Z,2.47
2022-10-11T10:49:54.957Z,2.90
2022-10-11T10:52:48.924Z,2.88
2022-10-11T10:55:28.613Z,2.65
2022-10-11T10:58:36.338Z,2.88
2022-10-11T11:01:32.743Z,2.92
2022-10-11T11:04:27.112Z,2.38
2022-10-11T11:07:19.875Z,2.72
2022-10-11T11:09:59.341Z,3.08
2022-10-11T11:13:03.255Z,2.63
2022-10-11T11:15:43.259Z,2.20
2022-10-11T11:18:27.021Z,2.28
2022-10-11T11:21:24.415Z,2.40
2022-10-11T11:23:56.915Z,2.70
2022-10-11T11:26:44.447Z,1.95
2022-10-11T11:29:58.681Z,2.00
2022-10-11T11:32:44.795Z,2.40
2022-10-11T11:35:28.079Z,2.00
2022-10-11T11:38:17.105Z,2.47
2022-10-11T11:41:02.829Z,1.92
2022-10-11T11:44:04.647Z,1.77
2022-10-11T11:47:02.166Z,2.03
2022-10-11T11:49:41.954Z,1.67
2022-10-11T11:52:25.633Z,2.20
2022-10-11T11:55:36.566Z,1.90
2022-10-11T11:58:21.983Z,2.40
2022-10-11T12:01:24.011Z,2.50
2022-10-11T12:06:47.751Z,2.03
2022-10-11T12:09:31.159Z,2.78
2022-10-11T12:12:09.514Z,2.78
2022-10-11T12:14:42.777Z,2.90
2022-10-11T12:17:22.733Z,3.38
2022-10-11T12:20:24.685Z,3.40
2022-10-11T12:23:24.808Z,2.92
2022-10-11T12:26:27.910Z,2.65
2022-10-11T12:29:42.887Z,2.95
2022-10-11T12:32:27.839Z,3.40
2022-10-11T12:35:32.154Z,2.40
2022-10-11T12:38:04.621Z,1.95
2022-10-11T12:40:43.243Z,1.70
2022-10-11T12:43:15.694Z,1.65
2022-10-11T12:45:48.471Z,1.83
2022-10-11T12:51:28.300Z,2.08
2022-10-11T12:54:39.419Z,1.20
2022-10-11T12:57:26.550Z,2.10
2022-10-11T13:00:23.917Z,2.50
2022-10-11T13:02:58.185Z,2.38
2022-10-11T13:06:01.479Z,2.20
2022-10-11T13:08:37.944Z,1.92
2022-10-11T13:11:18.122Z,2.28
2022-10-11T13:14:06.826Z,2.08
2022-10-11T13:17:04.665Z,1.63
2022-10-11T13:22:19.748Z,1.77
2022-10-11T13:24:57.932Z,2.17
2022-10-11T13:27:30.575Z,1.70
2022-10-11T13:30:09.248Z,2.38
2022-10-11T13:32:43.625Z,1.92
2022-10-11T13:35:36.678Z,2.10
2022-10-11T13:38:18.842Z,1.48
2022-10-11T13:40:51.924Z,1.90
2022-10-11T13:43:27.629Z,2.20
2022-10-11T13:46:03.091Z,2.72
2022-10-11T13:48:56.312Z,2.22
2022-10-11T13:51:37.623Z,1.63
2022-10-11T13:54:13.790Z,2.38
2022-10-11T13:56:51.192Z,1.80
2022-10-11T13:59:25.642Z,1.73
2022-10-11T14:02:04.620Z,2.10
2022-10-11T14:04:41.869Z,2.33
2022-10-11T14:07:47.960Z,1.73
2022-10-11T14:10:22.443Z,3.05
2022-10-11T14:13:00.973Z,2.47
2022-10-11T14:15:38.364Z,2.20
2022-10-11T14:18:37.082Z,2.35
2022-10-11T14:21:25.089Z,2.28
2022-10-11T14:24:06.717Z,2.05
2022-10-11T14:26:44.422Z,2.30
2022-10-11T14:29:39.146Z,2.38
2022-10-11T14:32:16.369Z,2.42
2022-10-11T14:34:50.079Z,2.83
2022-10-11T14:37:23.555Z,2.60
2022-10-11T14:39:56.033Z,3.30
2022-10-11T14:42:28.582Z,3.03
2022-10-11T14:45:01.158Z,2.40
2022-10-11T14:47:33.682Z,3.42
2022-10-11T14:50:26.902Z,3.10
2022-10-11T14:55:32.377Z,3.70
2022-10-11T14:58:06.034Z,3.20
2022-10-11T15:00:38.670Z,2.60
2022-10-11T15:03:11.438Z,3.40
2022-10-11T15:05:44.028Z,3.65
2022-10-11T15:08:16.564Z,3.25
2022-10-11T15:10:49.270Z,4.10
2022-10-11T15:13:22.875Z,5.03
2022-10-11T15:15:55.599Z,4.50
2022-10-11T15:18:28.111Z,4.90
2022-10-11T15:21:00.818Z,4.28
2022-10-11T15:23:33.665Z,4.10
2022-10-11T15:28:39.163Z,4.35
2022-10-11T15:31:12.606Z,3.75
2022-10-11T15:33:45.117Z,4.55
2022-10-11T15:36:21.361Z,3.53
2022-10-11T15:38:53.838Z,7.10
2022-10-11T15:41:26.429Z,4.05
2022-10-11T15:43:58.897Z,3.70
2022-10-11T15:46:31.412Z,3.72
2022-10-11T15:49:10.800Z,3.67
2022-10-11T15:51:43.688Z,4.38
2022-10-11T15:56:48.580Z,3.53
2022-10-11T15:59:21.093Z,3.45
2022-10-11T16:01:55.104Z,3.47
2022-10-11T16:04:29.327Z,3.53
2022-10-11T16:07:01.927Z,3.35
2022-10-11T16:09:34.502Z,3.47
2022-10-11T16:12:07.144Z,3.90
2022-10-11T16:14:42.589Z,3.58
2022-10-11T16:17:17.361Z,3.92
2022-10-11T16:19:50.833Z,3.83
2022-10-11T16:22:24.514Z,3.67
2022-10-11T16:24:57.142Z,3.47
2022-10-11T16:27:29.812Z,3.70
2022-10-11T16:30:02.974Z,3.60
2022-10-11T16:32:35.475Z,3.92
2022-10-11T16:35:09.314Z,4.50
2022-10-11T16:37:42.122Z,4.13
2022-10-11T16:40:17.752Z,3.55
2022-10-11T16:42:50.383Z,3.58
2022-10-11T16:45:23.106Z,3.97
2022-10-11T16:47:55.650Z,3.92
2022-10-11T16:50:29.626Z,3.90
2022-10-11T16:53:02.249Z,3.67
2022-10-11T16:55:34.839Z,3.83
2022-10-11T16:58:11.633Z,3.45
2022-10-11T17:00:49.149Z,3.42
2022-10-11T17:03:25.631Z,4.05
2022-10-11T17:06:02.267Z,3.88
2022-10-11T17:08:36.218Z,3.78
2022-10-11T17:11:09.022Z,3.60
2022-10-11T17:13:41.598Z,4.30
2022-10-11T17:16:14.698Z,4.03
2022-10-11T17:18:47.219Z,4.55
2022-10-11T17:21:21.667Z,3.50
2022-10-11T17:23:54.409Z,4.07
2022-10-11T17:26:28.105Z,4.22
2022-10-11T17:29:01.491Z,3.50
2022-10-11T17:31:34.090Z,3.97
2022-10-11T17:34:07.027Z,4.22
2022-10-11T17:36:41.209Z,5.43
2022-10-11T17:39:19.365Z,3.67
2022-10-11T17:41:52.204Z,4.10
2022-10-11T17:46:57.224Z,4.00
2022-10-11T17:49:29.912Z,5.60
2022-10-11T17:52:02.410Z,5.78
2022-10-11T17:54:35.203Z,4.80
2022-10-11T17:59:45.631Z,4.38
2022-10-11T18:02:22.767Z,4.57
2022-10-11T18:04:58.508Z,4.88
2022-10-11T18:07:31.130Z,4.60
2022-10-11T18:10:03.988Z,4.55
2022-10-11T18:15:11.725Z,4.75
2022-10-11T18:17:44.174Z,4.82
2022-10-11T18:20:16.853Z,4.72
2022-10-11T18:22:50.586Z,4.47
2022-10-11T18:25:23.055Z,5.18
2022-10-11T18:27:55.599Z,3.92
2022-10-11T18:30:28.314Z,3.85
2022-10-11T18:33:00.889Z,4.47
2022-10-11T18:35:33.335Z,3.28
2022-10-11T18:38:06.404Z,3.97
2022-10-11T18:40:44.765Z,4.00
2022-10-11T18:43:19.445Z,3.90
2022-10-11T18:45:52.046Z,4.30
2022-10-11T18:48:24.581Z,3.95
2022-10-11T18:51:12.015Z,3.67
2022-10-11T18:53:44.986Z,3.42
2022-10-11T18:56:20.947Z,4.38
2022-10-11T18:58:55.262Z,3.45
2022-10-11T19:01:29.374Z,4.20
2022-10-11T19:04:03.062Z,4.22
2022-10-11T19:06:38.626Z,4.70
2022-10-11T19:09:22.003Z,5.50
2022-10-11T19:11:56.251Z,5.45
2022-10-11T19:14:30.452Z,4.75
2022-10-11T19:17:02.966Z,6.22
2022-10-11T19:19:35.657Z,6.18
2022-10-11T19:22:08.228Z,6.65
2022-10-11T19:24:41.106Z,5.55
2022-10-11T19:27:13.609Z,5.03
2022-10-11T19:29:46.247Z,4.82
2022-10-11T19:32:18.803Z,5.20
2022-10-11T19:34:51.325Z,5.18
2022-10-11T19:37:23.885Z,4.82
2022-10-11T19:39:56.319Z,5.07
2022-10-11T19:42:28.982Z,4.30
2022-10-11T19:45:01.685Z,3.85
2022-10-11T19:47:34.260Z,4.20
2022-10-11T19:50:07.472Z,4.72
2022-10-11T19:52:44.734Z,4.20
2022-10-11T19:55:17.583Z,4.18
2022-10-11T19:57:50.111Z,4.32
2022-10-11T20:00:22.815Z,4.00
2022-10-11T20:02:55.295Z,3.65
2022-10-11T20:05:28.223Z,4.68
2022-10-11T20:10:34.192Z,4.18
2022-10-11T20:13:11.748Z,3.95
2022-10-11T20:15:44.307Z,3.78
2022-10-11T20:18:17.479Z,4.60
2022-10-11T20:20:55.267Z,5.07
2022-10-11T20:23:28.023Z,3.90
2022-10-11T20:26:15.361Z,3.80
2022-10-11T20:28:52.336Z,4.38
2022-10-11T20:31:33.104Z,4.10
2022-10-11T20:34:07.644Z,4.15
2022-10-11T20:36:40.311Z,4.05
2022-10-11T20:39:13.142Z,4.40
2022-10-11T20:41:45.727Z,4.38
2022-10-11T20:44:18.442Z,4.82
2022-10-11T20:46:51.043Z,4.00
2022-10-11T20:49:23.616Z,4.13
2022-10-11T20:51:56.354Z,3.83
2022-10-11T20:54:30.016Z,3.80
2022-10-11T20:57:03.246Z,4.53
2022-10-11T20:59:35.963Z,4.20
2022-10-11T21:02:10.171Z,4.57
2022-10-11T21:04:42.682Z,4.15
2022-10-11T21:07:15.540Z,4.20
2022-10-11T21:12:20.819Z,4.18
2022-10-11T21:14:53.536Z,5.03
2022-10-11T21:17:26.082Z,4.15
2022-10-11T21:20:01.009Z,4.30
2022-10-11T21:22:34.195Z,4.45
2022-10-11T21:25:07.436Z,4.65
2022-10-11T21:27:39.992Z,4.82
2022-10-11T21:30:12.447Z,4.30
2022-10-11T21:32:44.943Z,3.85
2022-10-11T21:35:17.866Z,4.38
2022-10-11T21:40:22.838Z,4.18
2022-10-11T21:42:55.869Z,4.57
2022-10-11T21:45:28.684Z,4.65
2022-10-11T21:48:01.362Z,4.72
2022-10-11T21:50:34.044Z,4.30
2022-10-11T21:53:06.686Z,4.70
2022-10-11T21:55:39.168Z,5.07
2022-10-11T21:58:11.744Z,4.82
2022-10-11T22:00:46.973Z,4.28
2022-10-11T22:03:19.826Z,4.18
2022-10-11T22:05:52.467Z,4.32
2022-10-11T22:08:25.028Z,4.97
2022-10-11T22:10:59.939Z,4.32
2022-10-11T22:13:34.125Z,5.13
2022-10-11T22:16:09.260Z,4.65
2022-10-11T22:18:42.854Z,4.20
2022-10-11T22:21:16.883Z,4.43
2022-10-11T22:23:51.155Z,4.65
2022-10-11T22:26:26.480Z,4.70
2022-10-11T22:29:00.582Z,4.65
2022-10-11T22:31:34.766Z,5.55
2022-10-11T22:34:07.285Z,4.47
2022-10-11T22:36:39.831Z,4.93
2022-10-11T22:39:12.415Z,4.00
2022-10-11T22:41:44.971Z,5.70
2022-10-11T22:44:17.400Z,4.35
2022-10-11T22:46:49.977Z,4.75
2022-10-11T22:49:27.004Z,4.30
2022-10-11T22:51:59.573Z,4.30
2022-10-11T22:54:32.471Z,5.35
2022-10-11T22:59:37.650Z,5.57
2022-10-11T23:02:10.222Z,5.43
2022-10-11T23:04:42.833Z,5.65
2022-10-11T23:07:15.404Z,5.22
2022-10-11T23:09:47.870Z,4.95
2022-10-11T23:12:20.375Z,4.72
2022-10-11T23:14:55.868Z,5.13
2022-10-11T23:17:28.292Z,5.18
2022-10-11T23:20:01.055Z,5.07
2022-10-11T23:22:33.501Z,5.65
2022-10-11T23:25:06.612Z,5.00
2022-10-11T23:27:39.381Z,5.47
2022-10-11T23:30:13.094Z,5.25
2022-10-11T23:32:45.683Z,4.72
2022-10-11T23:35:18.261Z,4.65
2022-10-11T23:37:50.762Z,4.97
2022-10-11T23:40:23.306Z,4.97
2022-10-11T23:42:55.812Z,4.80
2022-10-11T23:45:28.356Z,4.93
2022-10-11T23:48:00.896Z,4.38
2022-10-11T23:50:33.344Z,5.18
2022-10-11T23:53:05.948Z,4.85
2022-10-11T23:55:38.427Z,4.95
2022-10-11T23:58:11.078Z,4.22
